sensor_id;sensor_type;location;lat;lon;timestamp;pressure;altitude;pressure_sealevel;temperature;humidity
11347;BME280;5728;42.722;23.258;2024-03-25T00:01:04;93573.19;;;3.13;100.00
11347;BME280;5728;42.722;23.258;2024-03-25T00:03:30;93572.47;;;2.99;100.00
11347;BME280;5728;42.722;23.258;2024-03-25T00:05:57;93577.66;;;2.80;100.00
11347;BME280;5728;42.722;23.258;2024-03-25T00:08:23;93574.31;;;2.70;100.00
11347;BME280;5728;42.722;23.258;2024-03-25T00:10:51;93549.44;;;2.93;100.00
11347;BME280;5728;42.722;23.258;2024-03-25T00:13:17;93564.81;;;2.93;100.00
11347;BME280;5728;42.722;23.258;2024-03-25T00:15:45;93539.19;;;2.95;100.00
11347;BME280;5728;42.722;23.258;2024-03-25T00:18:13;93531.44;;;3.02;100.00
11347;BME280;5728;42.722;23.258;2024-03-25T00:20:40;93533.94;;;3.10;100.00
11347;BME280;5728;42.722;23.258;2024-03-25T00:23:06;93530.69;;;2.88;100.00
11347;BME280;5728;42.722;23.258;2024-03-25T00:25:33;93531.59;;;2.80;100.00
11347;BME280;5728;42.722;23.258;2024-03-25T00:27:59;93526.44;;;2.86;100.00
11347;BME280;5728;42.722;23.258;2024-03-25T00:30:26;93500.06;;;2.75;100.00
11347;BME280;5728;42.722;23.258;2024-03-25T00:32:52;93514.28;;;3.16;100.00
11347;BME280;5728;42.722;23.258;2024-03-25T00:35:20;93504.16;;;3.00;100.00
11347;BME280;5728;42.722;23.258;2024-03-25T00:37:47;93513.38;;;3.20;100.00
11347;BME280;5728;42.722;23.258;2024-03-25T00:40:14;93511.50;;;3.41;100.00
11347;BME280;5728;42.722;23.258;2024-03-25T00:42:40;93537.88;;;3.53;100.00
11347;BME280;5728;42.722;23.258;2024-03-25T00:45:08;93518.69;;;3.91;100.00
11347;BME280;5728;42.722;23.258;2024-03-25T00:47:35;93514.47;;;3.88;100.00
11347;BME280;5728;42.722;23.258;2024-03-25T00:50:02;93509.41;;;3.80;100.00
11347;BME280;5728;42.722;23.258;2024-03-25T00:52:30;93517.81;;;3.95;100.00
11347;BME280;5728;42.722;23.258;2024-03-25T00:54:57;93519.59;;;3.88;100.00
11347;BME280;5728;42.722;23.258;2024-03-25T00:57:23;93500.06;;;3.76;100.00
11347;BME280;5728;42.722;23.258;2024-03-25T00:59:50;93500.66;;;3.98;100.00
11347;BME280;5728;42.722;23.258;2024-03-25T01:02:16;93491.22;;;4.05;100.00
11347;BME280;5728;42.722;23.258;2024-03-25T01:04:43;93483.53;;;4.03;100.00
11347;BME280;5728;42.722;23.258;2024-03-25T01:07:09;93499.03;;;3.91;100.00
11347;BME280;5728;42.722;23.258;2024-03-25T01:09:37;93479.19;;;4.10;100.00
11347;BME280;5728;42.722;23.258;2024-03-25T01:12:04;93464.66;;;4.10;100.00
11347;BME280;5728;42.722;23.258;2024-03-25T01:14:31;93462.78;;;4.21;100.00
11347;BME280;5728;42.722;23.258;2024-03-25T01:16:57;93444.66;;;4.33;100.00
11347;BME280;5728;42.722;23.258;2024-03-25T01:19:24;93449.81;;;4.32;100.00
11347;BME280;5728;42.722;23.258;2024-03-25T01:21:50;93483.13;;;4.36;100.00
11347;BME280;5728;42.722;23.258;2024-03-25T01:24:17;93465.09;;;4.41;100.00
11347;BME280;5728;42.722;23.258;2024-03-25T01:26:44;93470.00;;;4.56;100.00
11347;BME280;5728;42.722;23.258;2024-03-25T01:29:11;93471.00;;;4.47;100.00
11347;BME280;5728;42.722;23.258;2024-03-25T01:31:38;93467.66;;;4.42;100.00
11347;BME280;5728;42.722;23.258;2024-03-25T01:34:05;93470.31;;;4.35;100.00
11347;BME280;5728;42.722;23.258;2024-03-25T01:36:31;93470.19;;;4.45;100.00
11347;BME280;5728;42.722;23.258;2024-03-25T01:38:58;93479.28;;;4.68;100.00
11347;BME280;5728;42.722;23.258;2024-03-25T01:41:24;93517.22;;;4.44;100.00
11347;BME280;5728;42.722;23.258;2024-03-25T01:43:53;93484.78;;;4.40;100.00
11347;BME280;5728;42.722;23.258;2024-03-25T01:46:20;93500.97;;;4.45;100.00
11347;BME280;5728;42.722;23.258;2024-03-25T01:48:48;93498.41;;;4.44;100.00
11347;BME280;5728;42.722;23.258;2024-03-25T01:51:17;93495.00;;;4.43;100.00
11347;BME280;5728;42.722;23.258;2024-03-25T01:53:46;93495.97;;;4.35;100.00
11347;BME280;5728;42.722;23.258;2024-03-25T01:56:14;93497.38;;;3.88;100.00
11347;BME280;5728;42.722;23.258;2024-03-25T01:58:42;93521.47;;;3.71;100.00
11347;BME280;5728;42.722;23.258;2024-03-25T02:01:09;93516.56;;;3.50;100.00
11347;BME280;5728;42.722;23.258;2024-03-25T02:03:39;93518.34;;;3.42;100.00
11347;BME280;5728;42.722;23.258;2024-03-25T02:06:09;93520.84;;;3.48;100.00
11347;BME280;5728;42.722;23.258;2024-03-25T02:08:39;93530.22;;;3.49;100.00
11347;BME280;5728;42.722;23.258;2024-03-25T02:11:05;93526.94;;;3.35;100.00
11347;BME280;5728;42.722;23.258;2024-03-25T02:13:50;93529.50;;;3.35;100.00
11347;BME280;5728;42.722;23.258;2024-03-25T02:16:19;93524.38;;;3.35;100.00
11347;BME280;5728;42.722;23.258;2024-03-25T02:18:45;93523.63;;;3.22;100.00
11347;BME280;5728;42.722;23.258;2024-03-25T02:21:12;93532.13;;;3.26;100.00
11347;BME280;5728;42.722;23.258;2024-03-25T02:23:39;93509.91;;;3.28;100.00
11347;BME280;5728;42.722;23.258;2024-03-25T02:26:08;93505.84;;;3.07;100.00
11347;BME280;5728;42.722;23.258;2024-03-25T02:28:34;93525.22;;;3.35;100.00
11347;BME280;5728;42.722;23.258;2024-03-25T02:31:01;93524.38;;;3.36;100.00
11347;BME280;5728;42.722;23.258;2024-03-25T02:33:27;93517.56;;;3.34;100.00
11347;BME280;5728;42.722;23.258;2024-03-25T02:35:54;93516.56;;;3.50;100.00
11347;BME280;5728;42.722;23.258;2024-03-25T02:38:21;93520.78;;;3.57;100.00
11347;BME280;5728;42.722;23.258;2024-03-25T02:40:48;93530.94;;;3.64;100.00
11347;BME280;5728;42.722;23.258;2024-03-25T02:43:17;93520.84;;;3.49;100.00
11347;BME280;5728;42.722;23.258;2024-03-25T02:45:46;93516.56;;;3.48;100.00
11347;BME280;5728;42.722;23.258;2024-03-25T02:48:12;93529.19;;;3.69;100.00
11347;BME280;5728;42.722;23.258;2024-03-25T02:50:39;93524.09;;;3.66;100.00
11347;BME280;5728;42.722;23.258;2024-03-25T02:53:05;93540.25;;;3.73;100.00
11347;BME280;5728;42.722;23.258;2024-03-25T02:55:32;93545.47;;;3.64;100.00
11347;BME280;5728;42.722;23.258;2024-03-25T02:57:58;93548.88;;;3.63;100.00
11347;BME280;5728;42.722;23.258;2024-03-25T03:00:27;93555.78;;;3.56;100.00
11347;BME280;5728;42.722;23.258;2024-03-25T03:02:53;93538.78;;;3.48;100.00
11347;BME280;5728;42.722;23.258;2024-03-25T03:05:20;93565.94;;;3.70;100.00
11347;BME280;5728;42.722;23.258;2024-03-25T03:07:46;93536.00;;;3.72;100.00
11347;BME280;5728;42.722;23.258;2024-03-25T03:10:13;93569.44;;;3.60;100.00
11347;BME280;5728;42.722;23.258;2024-03-25T03:12:39;93547.22;;;3.59;100.00
11347;BME280;5728;42.722;23.258;2024-03-25T03:15:06;93563.31;;;3.77;100.00
11347;BME280;5728;42.722;23.258;2024-03-25T03:17:34;93572.69;;;3.77;100.00
11347;BME280;5728;42.722;23.258;2024-03-25T03:20:01;93552.13;;;3.83;100.00
11347;BME280;5728;42.722;23.258;2024-03-25T03:22:27;93538.56;;;3.70;100.00
11347;BME280;5728;42.722;23.258;2024-03-25T03:24:55;93549.72;;;3.66;100.00
11347;BME280;5728;42.722;23.258;2024-03-25T03:27:21;93554.78;;;3.71;100.00
11347;BME280;5728;42.722;23.258;2024-03-25T03:29:49;93572.75;;;3.68;100.00
11347;BME280;5728;42.722;23.258;2024-03-25T03:32:15;93565.94;;;3.70;100.00
11347;BME280;5728;42.722;23.258;2024-03-25T03:34:43;93572.69;;;3.75;100.00
11347;BME280;5728;42.722;23.258;2024-03-25T03:37:09;93570.97;;;3.79;100.00
11347;BME280;5728;42.722;23.258;2024-03-25T03:39:36;93571.66;;;3.95;100.00
11347;BME280;5728;42.722;23.258;2024-03-25T03:42:02;93576.03;;;3.85;100.00
11347;BME280;5728;42.722;23.258;2024-03-25T03:44:29;93596.63;;;3.73;100.00
11347;BME280;5728;42.722;23.258;2024-03-25T03:46:55;93580.38;;;3.77;100.00
11347;BME280;5728;42.722;23.258;2024-03-25T03:49:22;93579.38;;;3.93;100.00
11347;BME280;5728;42.722;23.258;2024-03-25T03:51:50;93589.63;;;3.93;100.00
11347;BME280;5728;42.722;23.258;2024-03-25T03:54:17;93577.56;;;4.04;100.00
11347;BME280;5728;42.722;23.258;2024-03-25T03:56:42;93569.09;;;3.95;100.00
11347;BME280;5728;42.722;23.258;2024-03-25T03:59:09;93577.75;;;3.83;100.00
11347;BME280;5728;42.722;23.258;2024-03-25T04:01:35;93598.19;;;3.95;100.00
11347;BME280;5728;42.722;23.258;2024-03-25T04:04:03;93599.97;;;3.84;100.00
11347;BME280;5728;42.722;23.258;2024-03-25T04:06:30;93596.63;;;3.77;99.91
11347;BME280;5728;42.722;23.258;2024-03-25T04:08:59;93618.78;;;3.84;100.00
11347;BME280;5728;42.722;23.258;2024-03-25T04:11:25;93610.19;;;3.85;99.54
11347;BME280;5728;42.722;23.258;2024-03-25T04:13:52;93601.75;;;3.76;100.00
11347;BME280;5728;42.722;23.258;2024-03-25T04:16:18;93605.09;;;3.84;100.00
11347;BME280;5728;42.722;23.258;2024-03-25T04:18:47;93596.50;;;3.93;100.00
11347;BME280;5728;42.722;23.258;2024-03-25T04:21:13;93606.16;;;3.62;100.00
11347;BME280;5728;42.722;23.258;2024-03-25T04:23:40;93621.28;;;3.91;100.00
11347;BME280;5728;42.722;23.258;2024-03-25T04:26:08;93638.25;;;4.04;100.00
11347;BME280;5728;42.722;23.258;2024-03-25T04:28:35;93626.50;;;3.80;99.94
11347;BME280;5728;42.722;23.258;2024-03-25T04:31:01;93631.56;;;3.89;100.00
11347;BME280;5728;42.722;23.258;2024-03-25T04:33:28;93622.81;;;4.08;100.00
11347;BME280;5728;42.722;23.258;2024-03-25T04:35:54;93612.75;;;3.90;99.98
11347;BME280;5728;42.722;23.258;2024-03-25T04:38:22;93663.22;;;3.85;100.00
11347;BME280;5728;42.722;23.258;2024-03-25T04:40:48;93647.78;;;3.90;99.93
11347;BME280;5728;42.722;23.258;2024-03-25T04:43:15;93667.31;;;4.07;99.91
11347;BME280;5728;42.722;23.258;2024-03-25T04:45:41;93658.97;;;3.79;99.02
11347;BME280;5728;42.722;23.258;2024-03-25T04:48:07;93669.78;;;4.13;100.00
11347;BME280;5728;42.722;23.258;2024-03-25T04:50:33;93682.56;;;4.22;100.00
11347;BME280;5728;42.722;23.258;2024-03-25T04:52:59;93674.13;;;4.10;100.00
11347;BME280;5728;42.722;23.258;2024-03-25T04:55:25;93685.69;;;4.48;100.00
11347;BME280;5728;42.722;23.258;2024-03-25T04:57:51;93683.56;;;4.03;98.54
11347;BME280;5728;42.722;23.258;2024-03-25T05:00:19;93688.41;;;4.36;99.30
11347;BME280;5728;42.722;23.258;2024-03-25T05:02:45;93684.13;;;4.37;98.53
11347;BME280;5728;42.722;23.258;2024-03-25T05:05:11;93692.94;;;4.07;99.05
11347;BME280;5728;42.722;23.258;2024-03-25T05:07:37;93670.53;;;4.27;99.92
11347;BME280;5728;42.722;23.258;2024-03-25T05:10:03;93684.25;;;4.25;98.92
11347;BME280;5728;42.722;23.258;2024-03-25T05:12:29;93678.09;;;4.42;97.41
11347;BME280;5728;42.722;23.258;2024-03-25T05:14:55;93675.66;;;4.30;96.18
11347;BME280;5728;42.722;23.258;2024-03-25T05:17:23;93648.16;;;4.38;97.37
11347;BME280;5728;42.722;23.258;2024-03-25T05:19:49;93685.84;;;4.33;96.41
11347;BME280;5728;42.722;23.258;2024-03-25T05:22:15;93682.59;;;4.18;96.09
11347;BME280;5728;42.722;23.258;2024-03-25T05:24:42;93690.31;;;4.13;96.07
11347;BME280;5728;42.722;23.258;2024-03-25T05:27:07;93699.53;;;4.35;95.72
11347;BME280;5728;42.722;23.258;2024-03-25T05:29:33;93688.50;;;4.24;96.16
11347;BME280;5728;42.722;23.258;2024-03-25T05:32:00;93706.53;;;4.17;96.30
11347;BME280;5728;42.722;23.258;2024-03-25T05:34:28;93697.06;;;4.23;97.46
11347;BME280;5728;42.722;23.258;2024-03-25T05:36:54;93697.25;;;4.05;96.09
11347;BME280;5728;42.722;23.258;2024-03-25T05:39:21;93715.13;;;4.14;96.73
11347;BME280;5728;42.722;23.258;2024-03-25T05:41:47;93713.44;;;4.09;96.79
11347;BME280;5728;42.722;23.258;2024-03-25T05:44:13;93715.13;;;4.13;97.29
11347;BME280;5728;42.722;23.258;2024-03-25T05:46:39;93715.97;;;4.15;96.44
11347;BME280;5728;42.722;23.258;2024-03-25T05:49:05;93713.34;;;4.21;96.38
11347;BME280;5728;42.722;23.258;2024-03-25T05:51:33;93729.31;;;4.51;96.00
11347;BME280;5728;42.722;23.258;2024-03-25T05:53:59;93727.69;;;4.41;95.60
11347;BME280;5728;42.722;23.258;2024-03-25T05:56:26;93726.72;;;4.55;95.49
11347;BME280;5728;42.722;23.258;2024-03-25T05:58:52;93761.63;;;4.74;94.35
11347;BME280;5728;42.722;23.258;2024-03-25T06:01:18;93733.31;;;4.80;94.63
11347;BME280;5728;42.722;23.258;2024-03-25T06:03:44;93741.38;;;5.26;94.75
11347;BME280;5728;42.722;23.258;2024-03-25T06:06:10;93734.03;;;4.92;92.73
11347;BME280;5728;42.722;23.258;2024-03-25T06:08:38;93745.09;;;4.99;92.78
11347;BME280;5728;42.722;23.258;2024-03-25T06:11:04;93746.91;;;4.91;91.89
11347;BME280;5728;42.722;23.258;2024-03-25T06:13:30;93775.09;;;4.94;92.37
11347;BME280;5728;42.722;23.258;2024-03-25T06:15:56;93742.47;;;5.05;91.85
11347;BME280;5728;42.722;23.258;2024-03-25T06:18:22;93770.44;;;5.31;90.59
11347;BME280;5728;42.722;23.258;2024-03-25T06:20:48;93752.72;;;5.05;90.18
11347;BME280;5728;42.722;23.258;2024-03-25T06:23:22;93763.28;;;5.54;91.46
11347;BME280;5728;42.722;23.258;2024-03-25T06:25:51;93787.03;;;5.72;88.94
11347;BME280;5728;42.722;23.258;2024-03-25T06:28:17;93760.19;;;5.96;89.70
11347;BME280;5728;42.722;23.258;2024-03-25T06:30:45;93759.78;;;5.59;88.78
11347;BME280;5728;42.722;23.258;2024-03-25T06:33:29;93762.69;;;5.32;89.45
11347;BME280;5728;42.722;23.258;2024-03-25T06:36:13;93765.31;;;5.28;89.53
11347;BME280;5728;42.722;23.258;2024-03-25T06:38:39;93761.31;;;5.04;90.65
11347;BME280;5728;42.722;23.258;2024-03-25T06:41:06;93788.69;;;5.08;90.87
11347;BME280;5728;42.722;23.258;2024-03-25T06:43:32;93776.63;;;5.13;91.18
11347;BME280;5728;42.722;23.258;2024-03-25T06:45:58;93786.91;;;5.13;91.58
11347;BME280;5728;42.722;23.258;2024-03-25T06:48:24;93780.63;;;5.37;91.68
11347;BME280;5728;42.722;23.258;2024-03-25T06:50:54;93786.59;;;5.40;90.11
11347;BME280;5728;42.722;23.258;2024-03-25T06:53:21;93795.34;;;5.21;89.13
11347;BME280;5728;42.722;23.258;2024-03-25T06:55:53;93796.66;;;5.58;88.31
11347;BME280;5728;42.722;23.258;2024-03-25T06:58:22;93794.69;;;5.78;87.30
11347;BME280;5728;42.722;23.258;2024-03-25T07:00:48;93802.63;;;6.26;87.38
11347;BME280;5728;42.722;23.258;2024-03-25T07:03:14;93835.41;;;6.70;85.26
11347;BME280;5728;42.722;23.258;2024-03-25T07:05:40;93798.19;;;6.87;83.67
11347;BME280;5728;42.722;23.258;2024-03-25T07:08:06;93802.47;;;6.35;83.11
11347;BME280;5728;42.722;23.258;2024-03-25T07:10:32;93821.75;;;6.66;83.32
11347;BME280;5728;42.722;23.258;2024-03-25T07:12:58;93816.25;;;6.86;81.87
11347;BME280;5728;42.722;23.258;2024-03-25T07:15:25;93817.25;;;6.24;82.38
11347;BME280;5728;42.722;23.258;2024-03-25T07:17:51;93815.28;;;6.94;82.83
11347;BME280;5728;42.722;23.258;2024-03-25T07:20:17;93822.84;;;6.50;81.51
11347;BME280;5728;42.722;23.258;2024-03-25T07:22:44;93829.88;;;6.94;81.28
11347;BME280;5728;42.722;23.258;2024-03-25T07:25:10;93821.97;;;6.51;80.77
11347;BME280;5728;42.722;23.258;2024-03-25T07:27:36;93818.66;;;6.96;81.40
11347;BME280;5728;42.722;23.258;2024-03-25T07:30:02;93832.38;;;6.98;79.95
11347;BME280;5728;42.722;23.258;2024-03-25T07:32:30;93840.28;;;6.88;79.64
11347;BME280;5728;42.722;23.258;2024-03-25T07:34:55;93834.38;;;6.81;79.27
11347;BME280;5728;42.722;23.258;2024-03-25T07:37:21;93822.72;;;6.58;79.74
11347;BME280;5728;42.722;23.258;2024-03-25T07:39:47;93834.34;;;6.84;80.58
11347;BME280;5728;42.722;23.258;2024-03-25T07:42:13;93842.59;;;7.04;79.78
11347;BME280;5728;42.722;23.258;2024-03-25T07:44:39;93840.28;;;7.37;78.78
11347;BME280;5728;42.722;23.258;2024-03-25T07:47:05;93807.19;;;7.13;77.38
11347;BME280;5728;42.722;23.258;2024-03-25T07:49:33;93831.81;;;6.81;78.35
11347;BME280;5728;42.722;23.258;2024-03-25T07:51:59;93835.88;;;6.94;78.41
11347;BME280;5728;42.722;23.258;2024-03-25T07:54:25;93840.59;;;7.19;78.10
11347;BME280;5728;42.722;23.258;2024-03-25T07:56:51;93841.72;;;7.04;76.55
11347;BME280;5728;42.722;23.258;2024-03-25T07:59:17;93843.09;;;7.69;76.88
11347;BME280;5728;42.722;23.258;2024-03-25T08:01:43;93839.16;;;7.94;74.56
11347;BME280;5728;42.722;23.258;2024-03-25T08:04:09;93870.38;;;8.25;75.07
11347;BME280;5728;42.722;23.258;2024-03-25T08:06:37;93850.78;;;7.72;74.97
11347;BME280;5728;42.722;23.258;2024-03-25T08:09:03;93838.84;;;7.21;76.00
11347;BME280;5728;42.722;23.258;2024-03-25T08:11:29;93847.66;;;7.07;75.64
11347;BME280;5728;42.722;23.258;2024-03-25T08:13:56;93876.53;;;7.28;76.12
11347;BME280;5728;42.722;23.258;2024-03-25T08:16:22;93856.47;;;7.43;74.50
11347;BME280;5728;42.722;23.258;2024-03-25T08:18:48;93852.94;;;7.01;75.37
11347;BME280;5728;42.722;23.258;2024-03-25T08:21:14;93867.34;;;7.13;77.08
11347;BME280;5728;42.722;23.258;2024-03-25T08:23:46;93859.66;;;8.02;76.26
11347;BME280;5728;42.722;23.258;2024-03-25T08:26:14;93875.91;;;8.07;74.51
11347;BME280;5728;42.722;23.258;2024-03-25T08:28:40;93871.94;;;7.89;72.80
11347;BME280;5728;42.722;23.258;2024-03-25T08:31:06;93882.22;;;7.92;72.83
11347;BME280;5728;42.722;23.258;2024-03-25T08:33:32;93888.59;;;7.73;71.67
11347;BME280;5728;42.722;23.258;2024-03-25T08:35:58;93884.31;;;8.94;72.39
11347;BME280;5728;42.722;23.258;2024-03-25T08:38:24;93879.84;;;8.24;69.38
11347;BME280;5728;42.722;23.258;2024-03-25T08:40:52;93874.59;;;8.30;70.61
11347;BME280;5728;42.722;23.258;2024-03-25T08:43:18;93882.38;;;8.26;71.49
11347;BME280;5728;42.722;23.258;2024-03-25T08:45:44;93885.66;;;8.36;71.01
11347;BME280;5728;42.722;23.258;2024-03-25T08:48:10;93872.97;;;7.82;71.60
11347;BME280;5728;42.722;23.258;2024-03-25T08:50:36;93879.13;;;7.75;72.13
11347;BME280;5728;42.722;23.258;2024-03-25T08:53:03;93926.28;;;7.82;72.67
11347;BME280;5728;42.722;23.258;2024-03-25T08:55:31;93882.88;;;8.02;72.23
11347;BME280;5728;42.722;23.258;2024-03-25T08:57:58;93877.22;;;8.27;71.06
11347;BME280;5728;42.722;23.258;2024-03-25T09:00:24;93877.50;;;7.68;72.26
11347;BME280;5728;42.722;23.258;2024-03-25T09:02:51;93891.50;;;8.01;72.92
11347;BME280;5728;42.722;23.258;2024-03-25T09:05:17;93871.50;;;8.53;70.47
11347;BME280;5728;42.722;23.258;2024-03-25T09:07:44;93873.72;;;8.30;69.27
11347;BME280;5728;42.722;23.258;2024-03-25T09:10:10;93886.59;;;8.31;70.91
11347;BME280;5728;42.722;23.258;2024-03-25T09:12:54;93889.41;;;7.77;72.53
11347;BME280;5728;42.722;23.258;2024-03-25T09:15:22;93887.38;;;7.46;73.99
11347;BME280;5728;42.722;23.258;2024-03-25T09:17:48;93875.59;;;7.79;73.13
11347;BME280;5728;42.722;23.258;2024-03-25T09:20:14;93892.94;;;7.71;73.50
11347;BME280;5728;42.722;23.258;2024-03-25T09:22:42;93898.75;;;7.82;73.78
11347;BME280;5728;42.722;23.258;2024-03-25T09:25:08;93901.50;;;7.73;73.75
11347;BME280;5728;42.722;23.258;2024-03-25T09:27:34;93889.22;;;7.86;73.67
11347;BME280;5728;42.722;23.258;2024-03-25T09:30:01;93902.81;;;7.95;73.64
11347;BME280;5728;42.722;23.258;2024-03-25T09:32:29;93885.81;;;7.84;73.94
11347;BME280;5728;42.722;23.258;2024-03-25T09:34:55;93891.66;;;7.93;72.03
11347;BME280;5728;42.722;23.258;2024-03-25T09:37:21;93927.72;;;7.96;71.30
11347;BME280;5728;42.722;23.258;2024-03-25T09:39:47;93909.22;;;8.19;72.51
11347;BME280;5728;42.722;23.258;2024-03-25T09:42:15;93906.50;;;7.82;72.41
11347;BME280;5728;42.722;23.258;2024-03-25T09:44:41;93907.84;;;8.01;70.78
11347;BME280;5728;42.722;23.258;2024-03-25T09:47:07;93902.00;;;7.92;71.64
11347;BME280;5728;42.722;23.258;2024-03-25T09:49:35;93912.91;;;8.07;72.17
11347;BME280;5728;42.722;23.258;2024-03-25T09:52:02;93893.16;;;8.48;70.79
11347;BME280;5728;42.722;23.258;2024-03-25T09:54:29;93898.47;;;7.97;70.54
11347;BME280;5728;42.722;23.258;2024-03-25T09:56:55;93897.78;;;8.32;70.45
11347;BME280;5728;42.722;23.258;2024-03-25T09:59:22;93903.28;;;8.57;68.56
11347;BME280;5728;42.722;23.258;2024-03-25T10:01:48;93928.78;;;8.72;67.30
11347;BME280;5728;42.722;23.258;2024-03-25T10:04:14;93893.44;;;9.11;65.90
11347;BME280;5728;42.722;23.258;2024-03-25T10:06:41;93897.19;;;9.67;64.53
11347;BME280;5728;42.722;23.258;2024-03-25T10:09:07;93908.97;;;9.09;65.20
11347;BME280;5728;42.722;23.258;2024-03-25T10:11:34;93890.97;;;9.06;65.18
11347;BME280;5728;42.722;23.258;2024-03-25T10:14:01;93892.59;;;8.72;65.69
11347;BME280;5728;42.722;23.258;2024-03-25T10:16:27;93891.22;;;8.94;64.45
11347;BME280;5728;42.722;23.258;2024-03-25T10:18:53;93900.19;;;9.16;66.82
11347;BME280;5728;42.722;23.258;2024-03-25T10:21:20;93890.97;;;9.05;64.83
11347;BME280;5728;42.722;23.258;2024-03-25T10:23:48;93915.63;;;9.19;62.70
11347;BME280;5728;42.722;23.258;2024-03-25T10:26:28;93893.31;;;9.15;61.65
11347;BME280;5728;42.722;23.258;2024-03-25T10:29:01;93895.59;;;8.92;63.87
11347;BME280;5728;42.722;23.258;2024-03-25T10:31:27;93901.19;;;9.11;63.10
11347;BME280;5728;42.722;23.258;2024-03-25T10:33:53;93907.81;;;8.84;61.39
11347;BME280;5728;42.722;23.258;2024-03-25T10:36:21;93903.16;;;8.99;61.08
11347;BME280;5728;42.722;23.258;2024-03-25T10:38:49;93889.50;;;9.30;59.34
11347;BME280;5728;42.722;23.258;2024-03-25T10:41:18;93902.41;;;8.96;60.84
11347;BME280;5728;42.722;23.258;2024-03-25T10:43:46;93890.91;;;8.71;62.29
11347;BME280;5728;42.722;23.258;2024-03-25T10:46:17;93892.41;;;9.51;60.25
11347;BME280;5728;42.722;23.258;2024-03-25T10:48:52;93895.34;;;9.72;58.34
11347;BME280;5728;42.722;23.258;2024-03-25T10:51:20;93906.38;;;9.44;58.34
11347;BME280;5728;42.722;23.258;2024-03-25T10:53:51;93889.09;;;9.11;58.86
11347;BME280;5728;42.722;23.258;2024-03-25T10:56:20;93923.25;;;9.25;59.59
11347;BME280;5728;42.722;23.258;2024-03-25T10:58:48;93895.41;;;9.69;59.36
11347;BME280;5728;42.722;23.258;2024-03-25T11:01:15;93908.63;;;10.22;57.72
11347;BME280;5728;42.722;23.258;2024-03-25T11:03:42;93900.63;;;10.61;57.64
11347;BME280;5728;42.722;23.258;2024-03-25T11:06:09;93900.63;;;10.30;57.48
11347;BME280;5728;42.722;23.258;2024-03-25T11:08:36;93901.25;;;10.97;56.22
11347;BME280;5728;42.722;23.258;2024-03-25T11:11:04;93893.06;;;10.53;57.74
11347;BME280;5728;42.722;23.258;2024-03-25T11:13:31;93897.09;;;10.02;59.41
11347;BME280;5728;42.722;23.258;2024-03-25T11:15:58;93904.09;;;9.66;59.56
11347;BME280;5728;42.722;23.258;2024-03-25T11:18:24;93901.88;;;9.17;64.25
11347;BME280;5728;42.722;23.258;2024-03-25T11:21:00;93907.16;;;8.38;69.00
11347;BME280;5728;42.722;23.258;2024-03-25T11:23:36;93918.50;;;7.83;71.86
11347;BME280;5728;42.722;23.258;2024-03-25T11:26:03;93913.16;;;7.95;71.65
11347;BME280;5728;42.722;23.258;2024-03-25T11:28:29;93927.22;;;8.22;69.76
11347;BME280;5728;42.722;23.258;2024-03-25T11:30:56;93926.69;;;8.51;69.11
11347;BME280;5728;42.722;23.258;2024-03-25T11:33:22;93915.75;;;8.76;68.42
11347;BME280;5728;42.722;23.258;2024-03-25T11:35:48;93922.63;;;8.77;68.74
11347;BME280;5728;42.722;23.258;2024-03-25T11:38:16;93882.75;;;8.51;66.92
11347;BME280;5728;42.722;23.258;2024-03-25T11:40:43;93877.66;;;9.21;66.84
11347;BME280;5728;42.722;23.258;2024-03-25T11:43:19;93914.50;;;9.31;63.92
11347;BME280;5728;42.722;23.258;2024-03-25T11:45:47;93912.81;;;9.63;64.41
11347;BME280;5728;42.722;23.258;2024-03-25T11:48:14;93904.75;;;9.74;63.01
11347;BME280;5728;42.722;23.258;2024-03-25T11:50:40;93927.59;;;10.24;59.26
11347;BME280;5728;42.722;23.258;2024-03-25T11:53:07;93915.72;;;10.16;59.38
11347;BME280;5728;42.722;23.258;2024-03-25T11:55:33;93910.94;;;10.01;60.57
11347;BME280;5728;42.722;23.258;2024-03-25T11:57:59;93917.78;;;10.03;57.27
11347;BME280;5728;42.722;23.258;2024-03-25T12:00:27;93914.13;;;10.12;57.50
11347;BME280;5728;42.722;23.258;2024-03-25T12:02:53;93915.03;;;9.43;60.98
11347;BME280;5728;42.722;23.258;2024-03-25T12:05:19;93915.97;;;9.04;63.24
11347;BME280;5728;42.722;23.258;2024-03-25T12:07:45;93942.81;;;9.00;62.85
11347;BME280;5728;42.722;23.258;2024-03-25T12:10:11;93930.59;;;8.68;63.86
11347;BME280;5728;42.722;23.258;2024-03-25T12:12:56;93911.66;;;9.40;61.67
11347;BME280;5728;42.722;23.258;2024-03-25T12:15:22;93904.22;;;10.26;59.53
11347;BME280;5728;42.722;23.258;2024-03-25T12:17:50;93912.22;;;9.85;61.26
11347;BME280;5728;42.722;23.258;2024-03-25T12:20:16;93909.19;;;10.63;59.86
11347;BME280;5728;42.722;23.258;2024-03-25T12:22:43;93905.19;;;11.10;57.70
11347;BME280;5728;42.722;23.258;2024-03-25T12:25:09;93892.50;;;11.27;56.46
11347;BME280;5728;42.722;23.258;2024-03-25T12:27:36;93910.59;;;10.74;57.02
11347;BME280;5728;42.722;23.258;2024-03-25T12:30:04;93908.72;;;11.07;55.88
11347;BME280;5728;42.722;23.258;2024-03-25T12:32:35;93916.47;;;11.35;53.58
11347;BME280;5728;42.722;23.258;2024-03-25T12:35:03;93913.41;;;11.48;53.96
11347;BME280;5728;42.722;23.258;2024-03-25T12:37:32;93898.75;;;10.37;55.26
11347;BME280;5728;42.722;23.258;2024-03-25T12:39:58;93911.69;;;10.66;54.65
11347;BME280;5728;42.722;23.258;2024-03-25T12:42:24;93917.75;;;11.48;52.40
11347;BME280;5728;42.722;23.258;2024-03-25T12:44:50;93928.13;;;11.48;52.37
11347;BME280;5728;42.722;23.258;2024-03-25T12:47:16;93929.09;;;10.90;53.54
11347;BME280;5728;42.722;23.258;2024-03-25T12:49:42;93932.81;;;10.52;57.01
11347;BME280;5728;42.722;23.258;2024-03-25T12:52:11;93941.34;;;10.27;58.92
11347;BME280;5728;42.722;23.258;2024-03-25T12:54:38;93932.72;;;9.60;60.61
11347;BME280;5728;42.722;23.258;2024-03-25T12:57:04;93939.56;;;9.62;60.92
11347;BME280;5728;42.722;23.258;2024-03-25T12:59:30;93921.13;;;9.41;60.65
11347;BME280;5728;42.722;23.258;2024-03-25T13:01:56;93932.03;;;9.53;60.44
11347;BME280;5728;42.722;23.258;2024-03-25T13:04:22;93932.78;;;9.23;61.94
11347;BME280;5728;42.722;23.258;2024-03-25T13:06:48;93916.03;;;9.38;62.08